createdAt,value
2022-11-16T00:00:46.667Z,6.50
2022-11-16T00:03:12.864Z,6.42
2022-11-16T00:05:39.078Z,6.47
2022-11-16T00:08:05.282Z,6.45
2022-11-16T00:10:31.497Z,6.47
2022-11-16T00:12:57.705Z,6.43
2022-11-16T00:15:23.912Z,6.43
2022-11-16T00:17:50.112Z,6.40
2022-11-16T00:20:16.319Z,6.42
2022-11-16T00:22:42.523Z,6.45
2022-11-16T00:25:08.811Z,6.38
2022-11-16T00:27:35.016Z,6.40
2022-11-16T00:30:01.253Z,6.43
2022-11-16T00:32:27.444Z,6.38
2022-11-16T00:34:53.653Z,6.38
2022-11-16T00:37:19.863Z,6.41
2022-11-16T00:39:46.083Z,6.38
2022-11-16T00:42:12.289Z,6.47
2022-11-16T00:44:38.506Z,6.43
2022-11-16T00:47:04.803Z,6.43
2022-11-16T00:49:31.012Z,6.41
2022-11-16T00:51:57.204Z,6.33
2022-11-16T00:54:23.408Z,6.36
2022-11-16T00:56:49.618Z,6.33
2022-11-16T00:59:15.834Z,6.31
2022-11-16T01:01:42.077Z,6.30
2022-11-16T01:04:08.360Z,6.32
2022-11-16T01:06:34.563Z,6.27
2022-11-16T01:09:00.764Z,6.30
2022-11-16T01:11:26.970Z,6.31
2022-11-16T01:13:53.377Z,6.29
2022-11-16T01:16:19.961Z,6.27
2022-11-16T01:18:49.704Z,6.27
2022-11-16T01:21:16.013Z,6.27
2022-11-16T01:23:42.208Z,6.23
2022-11-16T01:26:08.409Z,6.28
2022-11-16T01:28:34.816Z,6.30
2022-11-16T01:31:01.266Z,6.24
2022-11-16T01:33:27.470Z,6.23
2022-11-16T01:35:53.676Z,6.21
2022-11-16T01:38:19.876Z,6.25
2022-11-16T01:40:46.080Z,6.25
2022-11-16T01:43:32.526Z,6.22
2022-11-16T01:45:58.730Z,6.22
2022-11-16T01:48:25.997Z,6.21
2022-11-16T01:50:52.265Z,6.19
2022-11-16T01:53:18.456Z,6.16
2022-11-16T01:55:44.709Z,6.15
2022-11-16T01:58:16.257Z,6.20
2022-11-16T02:00:42.515Z,6.17
2022-11-16T02:03:08.766Z,6.15
2022-11-16T02:05:50.306Z,6.10
2022-11-16T02:08:35.547Z,6.14
2022-11-16T02:11:13.613Z,6.12
2022-11-16T02:13:45.931Z,6.09
2022-11-16T02:16:19.334Z,6.12
2022-11-16T02:18:45.484Z,6.10
2022-11-16T02:21:22.911Z,6.14
2022-11-16T02:23:52.118Z,6.15
2022-11-16T02:26:18.326Z,6.16
2022-11-16T02:29:03.180Z,6.14
2022-11-16T02:31:30.455Z,6.08
2022-11-16T02:33:56.660Z,6.11
2022-11-16T02:36:23.421Z,6.09
2022-11-16T02:38:51.491Z,6.13
2022-11-16T02:41:18.613Z,6.14
2022-11-16T02:43:45.532Z,6.10
2022-11-16T02:46:26.787Z,6.17
2022-11-16T02:48:53.439Z,6.13
2022-11-16T02:51:19.643Z,6.13
2022-11-16T02:54:01.148Z,6.09
2022-11-16T02:56:27.352Z,6.12
2022-11-16T02:58:54.598Z,6.12
2022-11-16T03:01:24.785Z,6.18
2022-11-16T03:03:52.768Z,6.05
2022-11-16T03:06:26.644Z,6.01
2022-11-16T03:08:56.423Z,6.02
2022-11-16T03:11:22.617Z,6.03
2022-11-16T03:13:48.821Z,6.00
2022-11-16T03:16:23.005Z,5.94
2022-11-16T03:18:49.550Z,5.88
2022-11-16T03:21:21.869Z,5.87
2022-11-16T03:23:48.080Z,5.91
2022-11-16T03:26:14.847Z,5.87
2022-11-16T03:28:43.237Z,5.86
2022-11-16T03:31:18.368Z,5.89
2022-11-16T03:33:46.196Z,5.83
2022-11-16T03:36:17.269Z,5.82
2022-11-16T03:38:43.562Z,5.84
2022-11-16T03:41:09.879Z,5.83
2022-11-16T03:43:36.094Z,5.89
2022-11-16T03:46:02.298Z,5.87
2022-11-16T03:48:35.140Z,5.87
2022-11-16T03:51:01.789Z,5.93
2022-11-16T03:53:27.996Z,5.90
2022-11-16T03:55:54.207Z,5.87
2022-11-16T03:58:20.421Z,5.89
2022-11-16T04:00:46.837Z,5.91
2022-11-16T04:03:13.115Z,5.93
2022-11-16T04:05:39.436Z,5.93
2022-11-16T04:08:05.641Z,5.96
2022-11-16T04:10:31.833Z,5.94
2022-11-16T04:12:58.075Z,5.91
2022-11-16T04:15:24.272Z,5.87
2022-11-16T04:17:50.486Z,5.91
2022-11-16T04:20:16.718Z,5.89
2022-11-16T04:23:00.120Z,5.87
2022-11-16T04:25:27.267Z,5.86
2022-11-16T04:27:53.676Z,5.82
2022-11-16T04:30:19.909Z,5.76
2022-11-16T04:32:46.112Z,5.77
2022-11-16T04:35:12.320Z,5.74
2022-11-16T04:37:38.512Z,5.75
2022-11-16T04:40:04.932Z,5.68
2022-11-16T04:42:31.158Z,5.67
2022-11-16T04:44:57.373Z,5.67
2022-11-16T04:47:23.567Z,5.71
2022-11-16T04:49:49.782Z,5.73
2022-11-16T04:52:15.988Z,5.70
2022-11-16T04:54:42.213Z,5.74
2022-11-16T04:57:08.417Z,5.75
2022-11-16T04:59:34.637Z,5.72
2022-11-16T05:02:00.843Z,5.74
2022-11-16T05:04:27.050Z,5.75
2022-11-16T05:06:53.297Z,5.80
2022-11-16T05:09:19.559Z,5.82
2022-11-16T05:11:45.758Z,5.81
2022-11-16T05:14:12.048Z,5.84
2022-11-16T05:16:38.255Z,5.85
2022-11-16T05:19:04.469Z,5.85
2022-11-16T05:21:30.669Z,5.88
2022-11-16T05:23:56.886Z,5.90
2022-11-16T05:26:23.086Z,5.92
2022-11-16T05:28:49.298Z,5.91
2022-11-16T05:31:15.506Z,5.93
2022-11-16T05:33:41.712Z,5.96
2022-11-16T05:36:08.106Z,5.94
2022-11-16T05:38:34.560Z,5.98
2022-11-16T05:41:00.974Z,6.02
2022-11-16T05:43:27.189Z,6.00
2022-11-16T05:45:53.401Z,6.04
2022-11-16T05:48:19.613Z,6.11
2022-11-16T05:50:45.820Z,6.08
2022-11-16T05:53:12.032Z,6.13
2022-11-16T05:55:38.242Z,6.19
2022-11-16T05:58:04.444Z,6.23
2022-11-16T06:00:30.646Z,6.22
2022-11-16T06:02:56.878Z,6.22
2022-11-16T06:05:23.181Z,6.24
2022-11-16T06:07:49.376Z,6.27
2022-11-16T06:10:15.593Z,6.35
2022-11-16T06:12:41.793Z,6.31
2022-11-16T06:15:08.107Z,6.29
2022-11-16T06:17:34.322Z,6.32
2022-11-16T06:20:00.545Z,6.31
2022-11-16T06:22:26.765Z,6.33
2022-11-16T06:24:52.977Z,6.32
2022-11-16T06:27:19.175Z,6.34
2022-11-16T06:29:45.383Z,6.34
2022-11-16T06:32:11.590Z,6.34
2022-11-16T06:34:37.795Z,6.35
2022-11-16T06:37:03.996Z,6.41
2022-11-16T06:39:30.192Z,6.36
2022-11-16T06:41:56.406Z,6.36
2022-11-16T06:44:22.601Z,6.39
2022-11-16T06:46:49.072Z,6.41
2022-11-16T06:49:15.279Z,6.42
2022-11-16T06:51:41.500Z,6.44
2022-11-16T06:54:07.719Z,6.45
2022-11-16T06:56:34.484Z,6.44
2022-11-16T06:59:00.693Z,6.48
2022-11-16T07:01:26.950Z,6.44
2022-11-16T07:03:53.209Z,6.47
2022-11-16T07:06:19.423Z,6.48
2022-11-16T07:08:45.644Z,6.41
2022-11-16T07:11:11.915Z,6.40
2022-11-16T07:13:38.109Z,6.40
2022-11-16T07:16:04.824Z,6.41
2022-11-16T07:18:35.095Z,6.42
2022-11-16T07:21:14.544Z,6.43
2022-11-16T07:23:40.742Z,6.40
2022-11-16T07:26:07.091Z,6.46
2022-11-16T07:28:33.733Z,6.42
2022-11-16T07:31:03.836Z,6.41
2022-11-16T07:33:30.090Z,6.46
2022-11-16T07:36:16.542Z,6.46
2022-11-16T07:38:42.739Z,6.40
2022-11-16T07:41:09.650Z,6.38
2022-11-16T07:43:35.857Z,6.42
2022-11-16T07:46:44.818Z,6.39
2022-11-16T07:48:51.489Z,6.41
2022-11-16T07:51:17.882Z,6.39
2022-11-16T07:53:44.116Z,6.37
2022-11-16T07:56:10.544Z,6.37
2022-11-16T07:58:36.894Z,6.40
2022-11-16T08:01:12.825Z,6.39
2022-11-16T08:03:39.084Z,6.39
2022-11-16T08:06:10.713Z,6.37
2022-11-16T08:08:37.130Z,6.38
2022-11-16T08:11:07.370Z,6.34
2022-11-16T08:13:34.029Z,6.37
2022-11-16T08:16:03.777Z,6.34
2022-11-16T08:18:30.935Z,6.39
2022-11-16T08:21:00.390Z,6.39
2022-11-16T08:23:26.607Z,6.35
2022-11-16T08:25:55.761Z,6.37
2022-11-16T08:28:21.982Z,6.37
2022-11-16T08:30:53.482Z,6.35
2022-11-16T08:33:19.978Z,6.40
2022-11-16T08:35:46.185Z,6.39
2022-11-16T08:38:12.411Z,6.38
2022-11-16T08:40:38.628Z,6.35
2022-11-16T08:43:04.862Z,6.39
2022-11-16T08:45:31.226Z,6.34
2022-11-16T08:48:03.526Z,6.38
2022-11-16T08:50:33.440Z,6.35
2022-11-16T08:53:06.036Z,6.39
2022-11-16T08:55:32.763Z,6.42
2022-11-16T08:57:58.982Z,6.38
2022-11-16T09:00:25.177Z,6.42
2022-11-16T09:02:51.394Z,6.43
2022-11-16T09:05:17.614Z,6.42
2022-11-16T09:07:44.098Z,6.41
2022-11-16T09:10:10.322Z,6.46
2022-11-16T09:12:36.585Z,6.48
2022-11-16T09:15:03.067Z,6.47
2022-11-16T09:17:29.363Z,6.48
2022-11-16T09:19:55.557Z,6.47
2022-11-16T09:22:21.760Z,6.50
2022-11-16T09:24:47.971Z,6.51
2022-11-16T09:27:14.176Z,6.51
2022-11-16T09:29:40.380Z,6.52
2022-11-16T09:32:06.588Z,6.52
2022-11-16T09:34:35.820Z,6.53
2022-11-16T09:37:02.040Z,6.60
2022-11-16T09:39:31.992Z,6.60
2022-11-16T09:42:04.593Z,6.61
2022-11-16T09:44:44.633Z,6.66
2022-11-16T09:47:31.082Z,6.66
2022-11-16T09:50:03.688Z,6.65
2022-11-16T09:52:32.101Z,6.74
2022-11-16T09:54:58.710Z,6.78
2022-11-16T09:57:26.701Z,6.75
2022-11-16T09:59:54.304Z,6.80
2022-11-16T10:02:28.181Z,6.81
2022-11-16T10:04:58.767Z,6.77
2022-11-16T10:07:34.280Z,6.83
2022-11-16T10:10:00.520Z,6.85
2022-11-16T10:12:37.954Z,6.80
2022-11-16T10:15:10.275Z,6.82
2022-11-16T10:17:55.025Z,6.88
2022-11-16T10:20:39.454Z,6.91
2022-11-16T10:23:09.328Z,6.84
2022-11-16T10:25:56.729Z,6.86
2022-11-16T10:28:22.879Z,6.88
2022-11-16T10:30:53.651Z,6.93
2022-11-16T10:33:19.935Z,6.99
2022-11-16T10:35:47.282Z,6.93
2022-11-16T10:38:14.183Z,6.91
2022-11-16T10:40:40.393Z,6.89
2022-11-16T10:43:12.609Z,6.99
2022-11-16T10:45:39.578Z,6.93
2022-11-16T10:48:05.896Z,6.93
2022-11-16T10:50:43.231Z,6.96
2022-11-16T10:53:13.609Z,6.99
2022-11-16T10:55:39.808Z,6.95
2022-11-16T10:58:06.115Z,6.96
2022-11-16T11:00:36.428Z,7.03
2022-11-16T11:03:02.682Z,6.98
2022-11-16T11:05:28.880Z,6.99
2022-11-16T11:08:02.329Z,7.02
2022-11-16T11:10:38.521Z,6.98
2022-11-16T11:13:10.774Z,6.98
2022-11-16T11:15:37.373Z,6.98
2022-11-16T11:18:15.785Z,6.99
2022-11-16T11:20:45.009Z,7.05
2022-11-16T11:23:15.860Z,7.03
2022-11-16T11:25:48.311Z,7.06
2022-11-16T11:28:20.688Z,7.06
2022-11-16T11:31:01.968Z,7.13
2022-11-16T11:33:35.840Z,7.07
2022-11-16T11:36:05.448Z,7.10
2022-11-16T11:38:31.802Z,7.13
2022-11-16T11:41:01.659Z,7.07
2022-11-16T11:43:28.141Z,7.08
2022-11-16T11:45:56.549Z,7.13
2022-11-16T11:48:41.325Z,7.12
2022-11-16T11:51:19.164Z,7.07
2022-11-16T11:53:51.548Z,7.04
2022-11-16T11:56:17.744Z,7.07
2022-11-16T11:58:43.966Z,7.02
2022-11-16T12:01:23.753Z,7.03
2022-11-16T12:03:57.491Z,7.03
2022-11-16T12:06:44.268Z,7.03
2022-11-16T12:09:19.763Z,7.03
2022-11-16T12:12:04.801Z,7.01
2022-11-16T12:14:45.043Z,7.01
2022-11-16T12:17:17.834Z,7.00
2022-11-16T12:20:03.315Z,7.04
2022-11-16T12:22:44.726Z,7.06
2022-11-16T12:25:28.602Z,7.01
2022-11-16T12:28:10.982Z,7.08
2022-11-16T12:30:55.615Z,7.04
2022-11-16T12:33:21.777Z,7.02
2022-11-16T12:36:06.748Z,7.04
2022-11-16T12:38:38.360Z,7.02
2022-11-16T12:41:07.525Z,7.02
2022-11-16T12:43:48.180Z,7.02
2022-11-16T12:46:17.401Z,7.05
2022-11-16T12:49:06.927Z,7.03
2022-11-16T12:51:33.215Z,7.07
2022-11-16T12:54:19.263Z,7.08
2022-11-16T12:56:48.881Z,7.07
2022-11-16T12:59:18.276Z,7.05
2022-11-16T13:02:03.373Z,7.07
2022-11-16T13:04:33.917Z,7.07
2022-11-16T13:07:10.435Z,7.11
2022-11-16T13:09:37.565Z,7.15
2022-11-16T13:12:05.384Z,7.13
2022-11-16T13:14:37.142Z,7.10
2022-11-16T13:17:03.351Z,7.13
2022-11-16T13:19:29.931Z,7.10
2022-11-16T13:21:57.929Z,7.09
2022-11-16T13:24:27.154Z,7.13
2022-11-16T13:27:11.930Z,7.13
2022-11-16T13:29:43.479Z,7.22
2022-11-16T13:32:22.009Z,7.24
2022-11-16T13:34:48.209Z,7.26
2022-11-16T13:37:33.283Z,7.27
2022-11-16T13:39:59.452Z,7.22
2022-11-16T13:42:25.652Z,7.25
2022-11-16T13:44:51.959Z,7.22
2022-11-16T13:47:19.989Z,7.21
2022-11-16T13:49:49.667Z,7.15
2022-11-16T13:52:24.993Z,7.22
2022-11-16T13:54:57.880Z,7.29
2022-11-16T13:57:25.039Z,7.30
2022-11-16T14:00:10.494Z,7.27
2022-11-16T14:02:40.509Z,7.20
2022-11-16T14:05:12.585Z,7.21
2022-11-16T14:07:41.605Z,7.22
2022-11-16T14:10:07.800Z,7.16
2022-11-16T14:12:37.203Z,7.23
2022-11-16T14:15:16.408Z,7.19
2022-11-16T14:17:52.354Z,7.11
2022-11-16T14:20:37.322Z,7.12
2022-11-16T14:23:22.098Z,7.10
2022-11-16T14:26:06.365Z,7.11
2022-11-16T14:28:42.213Z,7.15
2022-11-16T14:31:28.687Z,7.06
2022-11-16T14:33:55.380Z,7.00
2022-11-16T14:36:34.462Z,6.97
2022-11-16T14:39:13.993Z,6.89
2022-11-16T14:41:40.209Z,6.88
2022-11-16T14:44:07.828Z,6.88
2022-11-16T14:46:34.542Z,6.81
2022-11-16T14:49:00.813Z,6.86
2022-11-16T14:51:36.697Z,6.80
2022-11-16T14:54:11.365Z,6.75
2022-11-16T14:56:37.572Z,6.68
2022-11-16T14:59:03.775Z,6.67
2022-11-16T15:01:31.143Z,6.70
2022-11-16T15:03:58.737Z,6.64
2022-11-16T15:06:24.994Z,6.57
2022-11-16T15:08:55.653Z,6.56
2022-11-16T15:11:23.506Z,6.53
2022-11-16T15:13:49.717Z,6.59
2022-11-16T15:16:17.225Z,6.45
2022-11-16T15:18:56.556Z,6.44
2022-11-16T15:21:22.812Z,6.52
2022-11-16T15:24:08.341Z,6.40
2022-11-16T15:26:35.198Z,6.37
2022-11-16T15:29:01.410Z,6.36
2022-11-16T15:31:27.892Z,6.30
2022-11-16T15:33:54.114Z,6.32
2022-11-16T15:36:31.213Z,6.27
2022-11-16T15:38:57.550Z,6.33
2022-11-16T15:41:23.814Z,6.40
2022-11-16T15:44:12.311Z,6.32
2022-11-16T15:46:39.567Z,6.24
2022-11-16T15:49:08.980Z,6.18
2022-11-16T15:51:35.664Z,6.16
2022-11-16T15:54:20.502Z,6.11
2022-11-16T15:56:46.700Z,6.12
2022-11-16T15:59:18.017Z,6.02
2022-11-16T16:01:44.464Z,6.03
2022-11-16T16:04:14.457Z,6.00
2022-11-16T16:06:44.792Z,5.96
2022-11-16T16:09:18.633Z,5.89
2022-11-16T16:11:44.876Z,5.95
2022-11-16T16:14:11.080Z,5.90
2022-11-16T16:16:37.480Z,5.86
2022-11-16T16:19:23.305Z,5.81
2022-11-16T16:21:49.521Z,5.78
2022-11-16T16:24:34.519Z,5.73
2022-11-16T16:27:00.725Z,5.72
2022-11-16T16:29:27.390Z,5.71
2022-11-16T16:31:53.782Z,5.62
2022-11-16T16:34:19.988Z,5.50
2022-11-16T16:36:46.182Z,5.51
2022-11-16T16:39:12.401Z,5.38
2022-11-16T16:41:38.720Z,5.34
2022-11-16T16:44:05.236Z,5.41
2022-11-16T16:46:31.436Z,5.47
2022-11-16T16:48:57.651Z,5.39
2022-11-16T16:51:23.857Z,5.31
2022-11-16T16:53:50.074Z,5.12
2022-11-16T16:56:16.419Z,5.15
2022-11-16T16:58:42.638Z,5.06
2022-11-16T17:01:09.435Z,4.86
2022-11-16T17:03:35.983Z,5.06
2022-11-16T17:06:02.402Z,5.03
2022-11-16T17:08:34.952Z,4.96
2022-11-16T17:11:01.241Z,5.03
2022-11-16T17:13:27.460Z,4.97
2022-11-16T17:15:53.668Z,4.83
2022-11-16T17:18:19.874Z,4.72
2022-11-16T17:20:46.092Z,4.69
2022-11-16T17:23:12.301Z,4.70
2022-11-16T17:25:38.503Z,4.92
2022-11-16T17:28:04.709Z,4.85
2022-11-16T17:30:30.924Z,4.90
2022-11-16T17:32:57.120Z,4.91
2022-11-16T17:35:23.332Z,4.89
2022-11-16T17:37:49.533Z,4.75
2022-11-16T17:40:15.735Z,4.67
2022-11-16T17:42:41.941Z,4.69
2022-11-16T17:45:08.219Z,4.57
2022-11-16T17:47:34.426Z,4.52
2022-11-16T17:50:00.650Z,4.63
2022-11-16T17:52:26.860Z,4.69
2022-11-16T17:54:53.082Z,4.64
2022-11-16T17:57:19.275Z,4.71
2022-11-16T17:59:45.502Z,4.66
2022-11-16T18:02:11.695Z,4.72
2022-11-16T18:04:37.888Z,4.55
2022-11-16T18:07:04.126Z,4.72
2022-11-16T18:09:30.340Z,4.75
2022-11-16T18:11:56.550Z,4.67
2022-11-16T18:14:22.746Z,4.76
2022-11-16T18:16:48.991Z,4.55
2022-11-16T18:19:18.505Z,4.60
2022-11-16T18:21:44.744Z,4.68
2022-11-16T18:24:10.999Z,4.69
2022-11-16T18:26:37.228Z,4.71
2022-11-16T18:29:03.479Z,4.62
2022-11-16T18:31:29.750Z,4.72
2022-11-16T18:33:55.995Z,4.63
2022-11-16T18:36:22.201Z,4.60
2022-11-16T18:38:48.428Z,4.55
2022-11-16T18:41:14.602Z,4.68
2022-11-16T18:44:01.034Z,4.65
2022-11-16T18:46:27.947Z,4.61
2022-11-16T18:48:54.437Z,4.61
2022-11-16T18:51:20.804Z,4.59
2022-11-16T18:53:46.992Z,4.54
2022-11-16T18:56:13.209Z,4.67
2022-11-16T18:58:54.866Z,4.62
2022-11-16T19:01:25.084Z,4.75
2022-11-16T19:03:51.762Z,4.71
2022-11-16T19:06:18.337Z,4.71
2022-11-16T19:08:46.073Z,4.72
2022-11-16T19:11:15.417Z,4.68
2022-11-16T19:13:41.965Z,4.60
2022-11-16T19:16:08.658Z,4.62
2022-11-16T19:18:35.406Z,4.65
2022-11-16T19:21:08.654Z,4.68
2022-11-16T19:23:38.255Z,4.54
2022-11-16T19:26:04.536Z,4.54
2022-11-16T19:28:40.227Z,4.48
2022-11-16T19:31:25.455Z,4.47
2022-11-16T19:33:54.914Z,4.45
2022-11-16T19:36:21.150Z,4.39
2022-11-16T19:38:47.492Z,4.40
2022-11-16T19:41:14.052Z,4.32
2022-11-16T19:43:40.412Z,4.32
2022-11-16T19:46:10.440Z,4.28
2022-11-16T19:48:36.723Z,4.14
2022-11-16T19:51:03.654Z,4.29
2022-11-16T19:53:29.870Z,4.13
2022-11-16T19:55:56.059Z,4.04
2022-11-16T19:58:22.269Z,4.00
2022-11-16T20:00:48.692Z,3.92
2022-11-16T20:03:14.991Z,4.01
2022-11-16T20:05:41.181Z,4.15
2022-11-16T20:08:07.414Z,4.04
2022-11-16T20:10:33.612Z,4.15
2022-11-16T20:12:59.822Z,4.11
2022-11-16T20:15:26.018Z,4.18
2022-11-16T20:17:52.318Z,4.21
2022-11-16T20:20:18.573Z,4.18
2022-11-16T20:22:44.774Z,4.27
2022-11-16T20:25:10.967Z,4.25
2022-11-16T20:27:37.168Z,4.22
2022-11-16T20:30:09.031Z,4.18
2022-11-16T20:32:35.845Z,4.18
2022-11-16T20:35:02.050Z,4.32
2022-11-16T20:37:28.271Z,4.18
2022-11-16T20:39:54.478Z,4.17
2022-11-16T20:42:20.703Z,4.27
2022-11-16T20:44:46.915Z,4.29
2022-11-16T20:47:13.146Z,4.15
2022-11-16T20:49:39.344Z,4.19
2022-11-16T20:52:05.562Z,4.27
2022-11-16T20:54:31.761Z,4.27
2022-11-16T20:56:57.969Z,4.24
2022-11-16T20:59:24.167Z,4.32
2022-11-16T21:01:50.411Z,4.30
2022-11-16T21:04:16.635Z,4.42
2022-11-16T21:06:42.840Z,4.46
2022-11-16T21:09:10.870Z,4.44
2022-11-16T21:11:37.072Z,4.37
2022-11-16T21:14:03.271Z,4.43
2022-11-16T21:16:29.482Z,4.46
2022-11-16T21:18:55.699Z,4.35
2022-11-16T21:21:21.901Z,4.38
2022-11-16T21:23:48.134Z,4.34
2022-11-16T21:26:14.520Z,4.25
2022-11-16T21:28:40.906Z,4.27
2022-11-16T21:31:07.717Z,4.43
2022-11-16T21:33:34.180Z,4.18
2022-11-16T21:36:04.264Z,4.18
2022-11-16T21:38:30.941Z,4.19
2022-11-16T21:40:57.154Z,4.14
2022-11-16T21:43:23.367Z,4.09
2022-11-16T21:45:49.564Z,4.06
2022-11-16T21:48:15.761Z,4.02
2022-11-16T21:50:41.983Z,4.01
2022-11-16T21:53:08.200Z,4.07
2022-11-16T21:55:34.417Z,4.05
2022-11-16T21:58:00.698Z,4.05
2022-11-16T22:00:27.077Z,3.99
2022-11-16T22:02:53.313Z,3.93
2022-11-16T22:05:19.604Z,3.91
2022-11-16T22:07:45.814Z,4.07
2022-11-16T22:10:12.160Z,3.83
2022-11-16T22:12:38.411Z,3.81
2022-11-16T22:15:05.217Z,3.77
2022-11-16T22:17:31.433Z,3.65
2022-11-16T22:19:57.648Z,3.50
2022-11-16T22:22:23.941Z,3.34
2022-11-16T22:24:50.267Z,3.42
2022-11-16T22:27:16.542Z,3.43
2022-11-16T22:29:42.815Z,3.43
2022-11-16T22:32:09.185Z,3.42
2022-11-16T22:34:35.445Z,3.40
2022-11-16T22:37:01.779Z,3.34
2022-11-16T22:39:27.991Z,3.32
2022-11-16T22:41:54.193Z,3.38
2022-11-16T22:44:20.388Z,3.22
2022-11-16T22:46:46.596Z,3.20
2022-11-16T22:49:12.788Z,3.22
2022-11-16T22:51:38.987Z,3.26
2022-11-16T22:54:06.360Z,3.23
2022-11-16T22:56:32.653Z,3.26
2022-11-16T22:58:58.858Z,3.20
2022-11-16T23:01:25.061Z,3.13
2022-11-16T23:03:51.305Z,3.03
2022-11-16T23:06:17.579Z,3.10
2022-11-16T23:08:43.807Z,3.01
2022-11-16T23:11:13.733Z,2.95
2022-11-16T23:13:39.926Z,2.98
2022-11-16T23:16:06.181Z,2.90
2022-11-16T23:18:32.393Z,2.84
2022-11-16T23:20:58.610Z,2.80
2022-11-16T23:23:24.817Z,2.70
2022-11-16T23:25:51.053Z,2.77
2022-11-16T23:28:17.265Z,2.76
2022-11-16T23:30:43.497Z,2.77
2022-11-16T23:33:09.727Z,2.76
2022-11-16T23:35:35.943Z,2.59
2022-11-16T23:38:02.614Z,2.59
2022-11-16T23:40:35.647Z,2.62
2022-11-16T23:43:01.879Z,2.55
2022-11-16T23:45:28.094Z,2.51
2022-11-16T23:47:54.300Z,2.48
2022-11-16T23:50:20.504Z,2.32
2022-11-16T23:52:46.706Z,2.29
2022-11-16T23:55:12.905Z,2.29
2022-11-16T23:57:39.111Z,2.18
